sensor_id;sensor_type;location;lat;lon;timestamp;pressure;altitude;pressure_sealevel;temperature;humidity
78675;BME280;67990;59.826;30.108;2023-02-26T00:00:05;100077.63;;;-1.31;66.55
78675;BME280;67990;59.826;30.108;2023-02-26T00:02:36;100068.84;;;-1.27;66.28
78675;BME280;67990;59.826;30.108;2023-02-26T00:05:04;100073.00;;;-1.25;66.39
78675;BME280;67990;59.826;30.108;2023-02-26T00:07:34;100078.38;;;-1.29;66.13
78675;BME280;67990;59.826;30.108;2023-02-26T00:10:01;100076.94;;;-1.35;66.80
78675;BME280;67990;59.826;30.108;2023-02-26T00:12:29;100080.44;;;-1.36;66.16
78675;BME280;67990;59.826;30.108;2023-02-26T00:14:57;100078.63;;;-1.34;66.44
78675;BME280;67990;59.826;30.108;2023-02-26T00:17:40;100079.31;;;-1.30;66.25
78675;BME280;67990;59.826;30.108;2023-02-26T00:20:10;100074.22;;;-1.32;67.13
78675;BME280;67990;59.826;30.108;2023-02-26T00:22:39;100060.34;;;-1.46;66.62
78675;BME280;67990;59.826;30.108;2023-02-26T00:25:07;100065.38;;;-1.60;66.94
78675;BME280;67990;59.826;30.108;2023-02-26T00:27:35;100071.50;;;-1.63;67.44
78675;BME280;67990;59.826;30.108;2023-02-26T00:30:05;100083.53;;;-1.29;66.73
78675;BME280;67990;59.826;30.108;2023-02-26T00:32:33;100080.50;;;-1.37;66.97
78675;BME280;67990;59.826;30.108;2023-02-26T00:35:01;100075.97;;;-1.32;66.25
78675;BME280;67990;59.826;30.108;2023-02-26T00:37:45;100063.72;;;-1.44;66.52
78675;BME280;67990;59.826;30.108;2023-02-26T00:40:22;100083.41;;;-1.43;66.98
78675;BME280;67990;59.826;30.108;2023-02-26T00:42:52;100084.97;;;-1.41;67.39
78675;BME280;67990;59.826;30.108;2023-02-26T00:45:20;100076.47;;;-1.43;66.73
78675;BME280;67990;59.826;30.108;2023-02-26T00:47:50;100057.56;;;-1.42;67.01
78675;BME280;67990;59.826;30.108;2023-02-26T00:50:22;100067.94;;;-1.26;66.83
78675;BME280;67990;59.826;30.108;2023-02-26T00:53:00;100075.44;;;-1.22;66.20
78675;BME280;67990;59.826;30.108;2023-02-26T00:55:29;100089.84;;;-1.18;66.83
78675;BME280;67990;59.826;30.108;2023-02-26T00:57:57;100084.97;;;-1.24;66.01
78675;BME280;67990;59.826;30.108;2023-02-26T01:00:24;100078.84;;;-1.38;67.06
78675;BME280;67990;59.826;30.108;2023-02-26T01:02:51;100081.50;;;-1.40;66.70
78675;BME280;67990;59.826;30.108;2023-02-26T01:05:19;100078.22;;;-1.26;65.71
78675;BME280;67990;59.826;30.108;2023-02-26T01:07:53;100077.72;;;-1.50;67.36
78675;BME280;67990;59.826;30.108;2023-02-26T01:10:23;100083.06;;;-1.54;67.06
78675;BME280;67990;59.826;30.108;2023-02-26T01:12:51;100093.91;;;-1.48;66.58
78675;BME280;67990;59.826;30.108;2023-02-26T01:15:21;100092.19;;;-1.47;67.41
78675;BME280;67990;59.826;30.108;2023-02-26T01:17:52;100096.25;;;-1.60;67.00
78675;BME280;67990;59.826;30.108;2023-02-26T01:20:23;100096.34;;;-1.45;66.51
78675;BME280;67990;59.826;30.108;2023-02-26T01:22:58;100094.28;;;-1.38;67.01
78675;BME280;67990;59.826;30.108;2023-02-26T01:25:29;100092.19;;;-1.30;66.92
78675;BME280;67990;59.826;30.108;2023-02-26T01:28:01;100096.28;;;-1.43;65.83
78675;BME280;67990;59.826;30.108;2023-02-26T01:30:29;100083.16;;;-1.39;67.16
78675;BME280;67990;59.826;30.108;2023-02-26T01:33:00;100087.47;;;-1.22;67.03
78675;BME280;67990;59.826;30.108;2023-02-26T01:35:39;100091.34;;;-1.48;66.44
78675;BME280;67990;59.826;30.108;2023-02-26T01:38:16;100085.22;;;-1.28;67.17
78675;BME280;67990;59.826;30.108;2023-02-26T01:41:05;100091.25;;;-1.29;67.16
78675;BME280;67990;59.826;30.108;2023-02-26T01:43:38;100085.19;;;-1.45;66.41
78675;BME280;67990;59.826;30.108;2023-02-26T01:46:13;100098.53;;;-1.54;66.13
78675;BME280;67990;59.826;30.108;2023-02-26T01:48:48;100103.28;;;-1.64;67.12
78675;BME280;67990;59.826;30.108;2023-02-26T01:51:17;100084.00;;;-1.55;66.65
78675;BME280;67990;59.826;30.108;2023-02-26T01:53:47;100076.06;;;-1.34;67.51
78675;BME280;67990;59.826;30.108;2023-02-26T01:56:17;100093.44;;;-1.39;66.45
78675;BME280;67990;59.826;30.108;2023-02-26T01:58:46;100083.06;;;-1.54;67.02
78675;BME280;67990;59.826;30.108;2023-02-26T02:01:15;100088.09;;;-1.34;66.85
78675;BME280;67990;59.826;30.108;2023-02-26T02:03:42;100092.19;;;-1.30;66.84
78675;BME280;67990;59.826;30.108;2023-02-26T02:06:17;100095.66;;;-1.14;65.96
78675;BME280;67990;59.826;30.108;2023-02-26T02:08:45;100092.63;;;-1.22;65.67
78675;BME280;67990;59.826;30.108;2023-02-26T02:11:14;100084.66;;;-1.35;65.74
78675;BME280;67990;59.826;30.108;2023-02-26T02:13:55;100095.16;;;-1.38;66.00
78675;BME280;67990;59.826;30.108;2023-02-26T02:16:31;100082.25;;;-1.55;66.86
78675;BME280;67990;59.826;30.108;2023-02-26T02:19:17;100090.44;;;-1.47;67.08
78675;BME280;67990;59.826;30.108;2023-02-26T02:22:14;100088.00;;;-1.50;66.56
78675;BME280;67990;59.826;30.108;2023-02-26T02:24:56;100088.28;;;-1.56;66.20
78675;BME280;67990;59.826;30.108;2023-02-26T02:27:35;100092.38;;;-1.52;66.94
78675;BME280;67990;59.826;30.108;2023-02-26T02:30:30;100093.31;;;-1.53;67.15
78675;BME280;67990;59.826;30.108;2023-02-26T02:33:02;100099.31;;;-1.52;67.04
78675;BME280;67990;59.826;30.108;2023-02-26T02:35:33;100093.44;;;-1.39;67.14
78675;BME280;67990;59.826;30.108;2023-02-26T02:38:06;100092.63;;;-1.22;65.75
78675;BME280;67990;59.826;30.108;2023-02-26T02:40:38;100072.09;;;-1.41;66.16
78675;BME280;67990;59.826;30.108;2023-02-26T02:43:09;100094.81;;;-1.49;66.10
78675;BME280;67990;59.826;30.108;2023-02-26T02:45:42;100094.38;;;-1.40;66.76
78675;BME280;67990;59.826;30.108;2023-02-26T02:48:16;100095.66;;;-1.14;65.64
78675;BME280;67990;59.826;30.108;2023-02-26T02:50:50;100088.13;;;-1.02;65.60
78675;BME280;67990;59.826;30.108;2023-02-26T02:53:22;100097.78;;;-1.22;64.83
78675;BME280;67990;59.826;30.108;2023-02-26T02:55:54;100102.47;;;-1.30;64.72
78675;BME280;67990;59.826;30.108;2023-02-26T02:58:27;100082.09;;;-1.52;66.27
78675;BME280;67990;59.826;30.108;2023-02-26T03:00:59;100086.63;;;-1.40;65.22
78675;BME280;67990;59.826;30.108;2023-02-26T03:03:32;100093.84;;;-1.46;65.34
78675;BME280;67990;59.826;30.108;2023-02-26T03:06:01;100089.47;;;-1.27;65.42
78675;BME280;67990;59.826;30.108;2023-02-26T03:08:30;100089.59;;;-1.13;65.21
78675;BME280;67990;59.826;30.108;2023-02-26T03:11:00;100101.44;;;-1.43;65.62
78675;BME280;67990;59.826;30.108;2023-02-26T03:13:27;100096.78;;;-1.20;65.29
78675;BME280;67990;59.826;30.108;2023-02-26T03:16:15;100104.31;;;-1.32;65.84
78675;BME280;67990;59.826;30.108;2023-02-26T03:18:53;100105.00;;;-1.29;65.68
78675;BME280;67990;59.826;30.108;2023-02-26T03:21:33;100100.69;;;-1.28;65.22
78675;BME280;67990;59.826;30.108;2023-02-26T03:24:08;100103.00;;;-1.07;65.70
78675;BME280;67990;59.826;30.108;2023-02-26T03:26:42;100095.94;;;-1.20;65.11
78675;BME280;67990;59.826;30.108;2023-02-26T03:29:18;100101.28;;;-1.40;65.47
78675;BME280;67990;59.826;30.108;2023-02-26T03:31:52;100097.19;;;-1.27;65.67
78675;BME280;67990;59.826;30.108;2023-02-26T03:34:26;100109.81;;;-1.40;65.10
78675;BME280;67990;59.826;30.108;2023-02-26T03:36:56;100108.09;;;-1.39;64.58
78675;BME280;67990;59.826;30.108;2023-02-26T03:39:46;100113.22;;;-1.73;65.76
78675;BME280;67990;59.826;30.108;2023-02-26T03:42:19;100116.38;;;-1.85;65.51
78675;BME280;67990;59.826;30.108;2023-02-26T03:44:58;100115.03;;;-1.94;65.43
78675;BME280;67990;59.826;30.108;2023-02-26T03:47:28;100109.28;;;-1.63;65.14
78675;BME280;67990;59.826;30.108;2023-02-26T03:50:03;100116.75;;;-1.40;65.85
78675;BME280;67990;59.826;30.108;2023-02-26T03:52:41;100090.28;;;-1.96;64.50
78675;BME280;67990;59.826;30.108;2023-02-26T03:55:38;100125.47;;;-2.15;65.58
78675;BME280;67990;59.826;30.108;2023-02-26T03:58:36;100121.94;;;-1.94;66.27
78675;BME280;67990;59.826;30.108;2023-02-26T04:01:22;100117.09;;;-1.83;64.74
78675;BME280;67990;59.826;30.108;2023-02-26T04:03:56;100116.56;;;-1.90;65.11
78675;BME280;67990;59.826;30.108;2023-02-26T04:06:26;100115.72;;;-1.90;65.48
78675;BME280;67990;59.826;30.108;2023-02-26T04:08:56;100120.56;;;-1.49;65.02
78675;BME280;67990;59.826;30.108;2023-02-26T04:11:24;100114.28;;;-1.60;65.29
78675;BME280;67990;59.826;30.108;2023-02-26T04:13:52;100115.63;;;-1.70;65.14
78675;BME280;67990;59.826;30.108;2023-02-26T04:16:19;100113.53;;;-1.45;64.61
78675;BME280;67990;59.826;30.108;2023-02-26T04:18:47;100114.13;;;-1.57;65.74
78675;BME280;67990;59.826;30.108;2023-02-26T04:21:16;100112.03;;;-1.32;65.12
78675;BME280;67990;59.826;30.108;2023-02-26T04:23:47;100108.66;;;-1.68;64.60
78675;BME280;67990;59.826;30.108;2023-02-26T04:26:14;100109.44;;;-1.49;65.35
78675;BME280;67990;59.826;30.108;2023-02-26T04:28:43;100099.84;;;-1.46;65.68
78675;BME280;67990;59.826;30.108;2023-02-26T04:31:10;100115.69;;;-1.19;64.72
78675;BME280;67990;59.826;30.108;2023-02-26T04:33:39;100111.25;;;-1.17;63.95
78675;BME280;67990;59.826;30.108;2023-02-26T04:36:07;100114.00;;;-1.20;64.66
78675;BME280;67990;59.826;30.108;2023-02-26T04:38:35;100112.56;;;-1.26;64.44
78675;BME280;67990;59.826;30.108;2023-02-26T04:41:05;100100.34;;;-1.05;64.06
78675;BME280;67990;59.826;30.108;2023-02-26T04:43:32;100093.22;;;-1.00;63.42
78675;BME280;67990;59.826;30.108;2023-02-26T04:46:23;100110.06;;;-1.10;64.36
78675;BME280;67990;59.826;30.108;2023-02-26T04:48:50;100107.78;;;-1.16;63.43
78675;BME280;67990;59.826;30.108;2023-02-26T04:51:19;100104.59;;;-1.04;63.96
78675;BME280;67990;59.826;30.108;2023-02-26T04:53:48;100106.44;;;-1.23;64.46
78675;BME280;67990;59.826;30.108;2023-02-26T04:56:20;100115.16;;;-1.26;63.63
78675;BME280;67990;59.826;30.108;2023-02-26T04:58:47;100116.28;;;-1.31;63.38
78675;BME280;67990;59.826;30.108;2023-02-26T05:01:20;100111.41;;;-1.20;64.27
78675;BME280;67990;59.826;30.108;2023-02-26T05:03:48;100101.50;;;-1.45;65.18
78675;BME280;67990;59.826;30.108;2023-02-26T05:06:15;100109.81;;;-1.23;64.26
78675;BME280;67990;59.826;30.108;2023-02-26T05:08:42;100114.22;;;-1.25;63.50
78675;BME280;67990;59.826;30.108;2023-02-26T05:11:10;100109.28;;;-1.46;64.63
78675;BME280;67990;59.826;30.108;2023-02-26T05:13:39;100118.84;;;-1.31;64.34
78675;BME280;67990;59.826;30.108;2023-02-26T05:16:07;100120.97;;;-1.22;63.94
78675;BME280;67990;59.826;30.108;2023-02-26T05:18:35;100109.81;;;-1.40;62.94
78675;BME280;67990;59.826;30.108;2023-02-26T05:21:03;100120.06;;;-1.21;64.04
78675;BME280;67990;59.826;30.108;2023-02-26T05:23:31;100113.78;;;-1.33;64.50
78675;BME280;67990;59.826;30.108;2023-02-26T05:25:59;100103.53;;;-1.34;63.82
78675;BME280;67990;59.826;30.108;2023-02-26T05:28:26;100111.88;;;-1.46;63.58
78675;BME280;67990;59.826;30.108;2023-02-26T05:30:56;100110.34;;;-1.33;64.39
78675;BME280;67990;59.826;30.108;2023-02-26T05:33:24;100113.09;;;-1.36;64.25
78675;BME280;67990;59.826;30.108;2023-02-26T05:35:51;100119.84;;;-1.51;63.46
78675;BME280;67990;59.826;30.108;2023-02-26T05:38:18;100116.41;;;-1.34;63.79
78675;BME280;67990;59.826;30.108;2023-02-26T05:40:46;100119.31;;;-1.40;64.14
78675;BME280;67990;59.826;30.108;2023-02-26T05:43:13;100126.16;;;-1.75;64.67
78675;BME280;67990;59.826;30.108;2023-02-26T05:45:40;100112.69;;;-1.63;64.85
78675;BME280;67990;59.826;30.108;2023-02-26T05:48:09;100116.94;;;-1.45;63.95
78675;BME280;67990;59.826;30.108;2023-02-26T05:50:36;100126.44;;;-1.28;64.81
78675;BME280;67990;59.826;30.108;2023-02-26T05:53:03;100110.75;;;-1.24;63.23
78675;BME280;67990;59.826;30.108;2023-02-26T05:55:30;100134.66;;;-1.56;63.49
78675;BME280;67990;59.826;30.108;2023-02-26T05:57:58;100116.22;;;-1.30;64.35
78675;BME280;67990;59.826;30.108;2023-02-26T06:00:25;100112.94;;;-1.33;63.98
78675;BME280;67990;59.826;30.108;2023-02-26T06:02:52;100137.03;;;-1.34;63.92
78675;BME280;67990;59.826;30.108;2023-02-26T06:05:21;100138.16;;;-1.23;63.05
78675;BME280;67990;59.826;30.108;2023-02-26T06:07:48;100132.47;;;-1.46;63.61
78675;BME280;67990;59.826;30.108;2023-02-26T06:10:16;100125.19;;;-1.55;63.13
78675;BME280;67990;59.826;30.108;2023-02-26T06:12:43;100153.69;;;-1.24;62.55
78675;BME280;67990;59.826;30.108;2023-02-26T06:15:10;100160.63;;;-1.60;62.97
78675;BME280;67990;59.826;30.108;2023-02-26T06:17:38;100142.78;;;-1.46;63.92
78675;BME280;67990;59.826;30.108;2023-02-26T06:20:06;100154.06;;;-1.49;63.72
78675;BME280;67990;59.826;30.108;2023-02-26T06:22:35;100146.88;;;-1.25;64.04
78675;BME280;67990;59.826;30.108;2023-02-26T06:25:02;100156.25;;;-1.41;64.17
78675;BME280;67990;59.826;30.108;2023-02-26T06:27:30;100153.88;;;-1.27;64.72
78675;BME280;67990;59.826;30.108;2023-02-26T06:29:57;100158.03;;;-1.25;64.04
78675;BME280;67990;59.826;30.108;2023-02-26T06:32:24;100159.84;;;-1.10;63.49
78675;BME280;67990;59.826;30.108;2023-02-26T06:34:52;100162.41;;;-1.10;64.38
78675;BME280;67990;59.826;30.108;2023-02-26T06:37:19;100160.69;;;-1.09;64.12
78675;BME280;67990;59.826;30.108;2023-02-26T06:39:47;100156.91;;;-1.36;64.45
78675;BME280;67990;59.826;30.108;2023-02-26T06:42:14;100143.38;;;-1.41;64.28
78675;BME280;67990;59.826;30.108;2023-02-26T06:44:41;100160.00;;;-1.30;64.96
78675;BME280;67990;59.826;30.108;2023-02-26T06:47:09;100165.97;;;-1.29;64.46
78675;BME280;67990;59.826;30.108;2023-02-26T06:49:36;100168.81;;;-1.69;65.19
78675;BME280;67990;59.826;30.108;2023-02-26T06:52:03;100161.22;;;-1.72;65.51
78675;BME280;67990;59.826;30.108;2023-02-26T06:54:31;100176.75;;;-1.92;65.63
78675;BME280;67990;59.826;30.108;2023-02-26T06:56:59;100164.41;;;-1.86;66.16
78675;BME280;67990;59.826;30.108;2023-02-26T06:59:27;100171.47;;;-1.89;66.16
78675;BME280;67990;59.826;30.108;2023-02-26T07:01:54;100164.00;;;-1.77;66.50
78675;BME280;67990;59.826;30.108;2023-02-26T07:04:22;100165.44;;;-1.36;66.09
78675;BME280;67990;59.826;30.108;2023-02-26T07:06:50;100166.50;;;-1.23;65.29
78675;BME280;67990;59.826;30.108;2023-02-26T07:09:17;100168.28;;;-1.23;64.28
78675;BME280;67990;59.826;30.108;2023-02-26T07:11:45;100161.22;;;-1.20;64.62
78675;BME280;67990;59.826;30.108;2023-02-26T07:14:14;100169.34;;;-1.10;63.78
78675;BME280;67990;59.826;30.108;2023-02-26T07:16:42;100159.47;;;-1.36;64.04
78675;BME280;67990;59.826;30.108;2023-02-26T07:19:09;100172.81;;;-1.11;63.30
78675;BME280;67990;59.826;30.108;2023-02-26T07:21:36;100174.56;;;-1.12;63.24
78675;BME280;67990;59.826;30.108;2023-02-26T07:24:04;100161.81;;;-1.15;63.45
78675;BME280;67990;59.826;30.108;2023-02-26T07:26:31;100172.03;;;-1.30;64.03
78675;BME280;67990;59.826;30.108;2023-02-26T07:28:59;100191.22;;;-1.19;63.98
78675;BME280;67990;59.826;30.108;2023-02-26T07:31:27;100182.09;;;-1.43;64.63
78675;BME280;67990;59.826;30.108;2023-02-26T07:33:54;100193.78;;;-1.36;62.44
78675;BME280;67990;59.826;30.108;2023-02-26T07:36:22;100190.78;;;-1.45;64.22
78675;BME280;67990;59.826;30.108;2023-02-26T07:38:50;100194.25;;;-1.11;64.82
78675;BME280;67990;59.826;30.108;2023-02-26T07:41:17;100184.38;;;-1.37;64.14
78675;BME280;67990;59.826;30.108;2023-02-26T07:43:44;100193.78;;;-1.19;64.48
78675;BME280;67990;59.826;30.108;2023-02-26T07:46:11;100197.69;;;-1.10;63.47
78675;BME280;67990;59.826;30.108;2023-02-26T07:48:40;100197.75;;;-1.12;64.17
78675;BME280;67990;59.826;30.108;2023-02-26T07:51:07;100194.44;;;-1.14;63.86
78675;BME280;67990;59.826;30.108;2023-02-26T07:53:36;100187.34;;;-1.44;62.44
78675;BME280;67990;59.826;30.108;2023-02-26T07:56:03;100207.78;;;-1.41;63.55
78675;BME280;67990;59.826;30.108;2023-02-26T07:58:30;100207.91;;;-1.26;64.00
78675;BME280;67990;59.826;30.108;2023-02-26T08:00:57;100203.59;;;-1.08;64.18
78675;BME280;67990;59.826;30.108;2023-02-26T08:03:25;100201.97;;;-1.28;64.32
78675;BME280;67990;59.826;30.108;2023-02-26T08:05:53;100208.53;;;-1.04;64.23
78675;BME280;67990;59.826;30.108;2023-02-26T08:08:20;100208.91;;;-0.94;64.24
78675;BME280;67990;59.826;30.108;2023-02-26T08:10:47;100206.47;;;-1.14;63.61
78675;BME280;67990;59.826;30.108;2023-02-26T08:13:15;100209.19;;;-1.17;62.83
78675;BME280;67990;59.826;30.108;2023-02-26T08:15:42;100207.69;;;-1.04;63.81
78675;BME280;67990;59.826;30.108;2023-02-26T08:18:09;100203.28;;;-1.19;63.61
78675;BME280;67990;59.826;30.108;2023-02-26T08:20:37;100197.22;;;-1.01;63.01
78675;BME280;67990;59.826;30.108;2023-02-26T08:23:06;100201.09;;;-0.93;63.44
78675;BME280;67990;59.826;30.108;2023-02-26T08:25:33;100215.66;;;-1.09;63.10
78675;BME280;67990;59.826;30.108;2023-02-26T08:28:00;100213.53;;;-1.18;64.43
78675;BME280;67990;59.826;30.108;2023-02-26T08:30:28;100213.16;;;-1.46;63.55
78675;BME280;67990;59.826;30.108;2023-02-26T08:32:55;100205.78;;;-1.18;64.14
78675;BME280;67990;59.826;30.108;2023-02-26T08:35:22;100212.31;;;-0.94;63.63
78675;BME280;67990;59.826;30.108;2023-02-26T08:37:49;100214.91;;;-1.29;63.36
78675;BME280;67990;59.826;30.108;2023-02-26T08:40:19;100229.78;;;-1.17;63.67
78675;BME280;67990;59.826;30.108;2023-02-26T08:42:46;100223.91;;;-1.19;63.92
78675;BME280;67990;59.826;30.108;2023-02-26T08:45:13;100223.06;;;-1.20;63.73
78675;BME280;67990;59.826;30.108;2023-02-26T08:47:41;100216.13;;;-1.01;63.50
78675;BME280;67990;59.826;30.108;2023-02-26T08:50:10;100219.16;;;-0.93;63.74
78675;BME280;67990;59.826;30.108;2023-02-26T08:52:37;100223.59;;;-0.96;63.22
78675;BME280;67990;59.826;30.108;2023-02-26T08:55:05;100223.06;;;-1.03;62.51
78675;BME280;67990;59.826;30.108;2023-02-26T08:57:33;100231.50;;;-0.99;62.96
78675;BME280;67990;59.826;30.108;2023-02-26T09:00:01;100238.25;;;-1.14;62.28
78675;BME280;67990;59.826;30.108;2023-02-26T09:02:30;100217.84;;;-1.18;63.36
78675;BME280;67990;59.826;30.108;2023-02-26T09:05:00;100242.41;;;-1.11;62.92
78675;BME280;67990;59.826;30.108;2023-02-26T09:07:27;100236.91;;;-1.22;63.73
78675;BME280;67990;59.826;30.108;2023-02-26T09:09:55;100246.75;;;-1.30;63.14
78675;BME280;67990;59.826;30.108;2023-02-26T09:12:21;100248.44;;;-1.12;62.43
78675;BME280;67990;59.826;30.108;2023-02-26T09:14:50;100248.44;;;-1.12;62.88
78675;BME280;67990;59.826;30.108;2023-02-26T09:17:18;100246.00;;;-0.97;62.34
78675;BME280;67990;59.826;30.108;2023-02-26T09:19:45;100252.69;;;-1.28;61.01
78675;BME280;67990;59.826;30.108;2023-02-26T09:22:12;100249.38;;;-1.13;62.86
78675;BME280;67990;59.826;30.108;2023-02-26T09:24:39;100249.63;;;-0.84;62.33
78675;BME280;67990;59.826;30.108;2023-02-26T09:27:06;100246.88;;;-0.98;62.30
78675;BME280;67990;59.826;30.108;2023-02-26T09:29:34;100246.34;;;-0.87;62.38
78675;BME280;67990;59.826;30.108;2023-02-26T09:32:03;100247.78;;;-0.82;62.00
78675;BME280;67990;59.826;30.108;2023-02-26T09:34:33;100243.56;;;-0.83;61.62
78675;BME280;67990;59.826;30.108;2023-02-26T09:37:00;100243.31;;;-0.95;61.97
78675;BME280;67990;59.826;30.108;2023-02-26T09:39:27;100260.59;;;-0.97;62.25
78675;BME280;67990;59.826;30.108;2023-02-26T09:41:57;100254.88;;;-0.85;61.14
78675;BME280;67990;59.826;30.108;2023-02-26T09:44:27;100258.50;;;-0.72;61.65
78675;BME280;67990;59.826;30.108;2023-02-26T09:47:00;100266.31;;;-0.74;60.58
78675;BME280;67990;59.826;30.108;2023-02-26T09:49:39;100258.44;;;-0.88;61.63
78675;BME280;67990;59.826;30.108;2023-02-26T09:52:15;100269.03;;;-0.77;61.10
78675;BME280;67990;59.826;30.108;2023-02-26T09:54:46;100264.78;;;-0.61;60.70
78675;BME280;67990;59.826;30.108;2023-02-26T09:57:23;100269.28;;;-0.64;60.24
78675;BME280;67990;59.826;30.108;2023-02-26T09:59:52;100276.03;;;-0.79;61.31
78675;BME280;67990;59.826;30.108;2023-02-26T10:02:25;100269.84;;;-1.10;62.01
78675;BME280;67990;59.826;30.108;2023-02-26T10:05:07;100276.47;;;-0.88;61.76
78675;BME280;67990;59.826;30.108;2023-02-26T10:07:40;100275.50;;;-0.85;61.90
78675;BME280;67990;59.826;30.108;2023-02-26T10:10:18;100264.13;;;-0.64;61.12
78675;BME280;67990;59.826;30.108;2023-02-26T10:12:49;100276.47;;;-0.54;60.54
78675;BME280;67990;59.826;30.108;2023-02-26T10:15:20;100270.25;;;-0.50;59.91
78675;BME280;67990;59.826;30.108;2023-02-26T10:18:03;100288.06;;;-0.62;60.94
78675;BME280;67990;59.826;30.108;2023-02-26T10:20:37;100285.81;;;-0.68;60.62
78675;BME280;67990;59.826;30.108;2023-02-26T10:23:07;100291.75;;;-0.66;60.32
78675;BME280;67990;59.826;30.108;2023-02-26T10:25:41;100288.84;;;-0.60;60.58
78675;BME280;67990;59.826;30.108;2023-02-26T10:28:26;100296.81;;;-0.65;60.77
78675;BME280;67990;59.826;30.108;2023-02-26T10:31:00;100299.75;;;-0.72;60.96
78675;BME280;67990;59.826;30.108;2023-02-26T10:33:36;100299.59;;;-0.86;61.25
78675;BME280;67990;59.826;30.108;2023-02-26T10:36:18;100309.53;;;-0.79;60.60
78675;BME280;67990;59.826;30.108;2023-02-26T10:38:49;100310.63;;;-0.66;60.38
78675;BME280;67990;59.826;30.108;2023-02-26T10:41:20;100305.56;;;-0.86;60.25
78675;BME280;67990;59.826;30.108;2023-02-26T10:43:53;100297.50;;;-1.14;62.14
78675;BME280;67990;59.826;30.108;2023-02-26T10:46:31;100315.94;;;-1.04;61.89
78675;BME280;67990;59.826;30.108;2023-02-26T10:49:21;100310.53;;;-0.81;61.78
78675;BME280;67990;59.826;30.108;2023-02-26T10:51:53;100314.28;;;-0.88;61.13
78675;BME280;67990;59.826;30.108;2023-02-26T10:54:26;100323.13;;;-0.75;60.99
78675;BME280;67990;59.826;30.108;2023-02-26T10:56:56;100314.84;;;-0.48;60.21
78675;BME280;67990;59.826;30.108;2023-02-26T10:59:23;100335.13;;;-0.40;60.07
78675;BME280;67990;59.826;30.108;2023-02-26T11:01:51;100336.19;;;-0.61;60.00
78675;BME280;67990;59.826;30.108;2023-02-26T11:04:21;100339.78;;;-0.47;60.06
78675;BME280;67990;59.826;30.108;2023-02-26T11:06:53;100331.50;;;-0.36;60.25
78675;BME280;67990;59.826;30.108;2023-02-26T11:09:24;100337.13;;;-0.45;59.87
78675;BME280;67990;59.826;30.108;2023-02-26T11:11:53;100337.88;;;-0.26;59.70
78675;BME280;67990;59.826;30.108;2023-02-26T11:14:21;100339.00;;;-0.32;58.31
78675;BME280;67990;59.826;30.108;2023-02-26T11:16:51;100342.56;;;-0.34;59.48
78675;BME280;67990;59.826;30.108;2023-02-26T11:19:24;100345.69;;;-0.28;58.94
78675;BME280;67990;59.826;30.108;2023-02-26T11:21:54;100351.50;;;-0.58;60.21
78675;BME280;67990;59.826;30.108;2023-02-26T11:24:28;100353.88;;;-0.37;60.23
78675;BME280;67990;59.826;30.108;2023-02-26T11:26:59;100361.28;;;-0.48;60.34
78675;BME280;67990;59.826;30.108;2023-02-26T11:29:34;100367.06;;;-0.60;60.71
78675;BME280;67990;59.826;30.108;2023-02-26T11:32:04;100361.53;;;-0.35;60.54
78675;BME280;67990;59.826;30.108;2023-02-26T11:34:32;100327.22;;;-0.54;59.81
78675;BME280;67990;59.826;30.108;2023-02-26T11:37:01;100371.41;;;-0.26;59.62
78675;BME280;67990;59.826;30.108;2023-02-26T11:39:33;100376.97;;;-0.17;59.92
78675;BME280;67990;59.826;30.108;2023-02-26T11:42:03;100378.88;;;-0.03;59.53
78675;BME280;67990;59.826;30.108;2023-02-26T11:44:34;100381.97;;;0.03;59.51
78675;BME280;67990;59.826;30.108;2023-02-26T11:47:06;100384.38;;;-0.11;58.94
78675;BME280;67990;59.826;30.108;2023-02-26T11:49:33;100395.94;;;-0.35;60.21
78675;BME280;67990;59.826;30.108;2023-02-26T11:52:05;100403.50;;;-0.32;60.31
78675;BME280;67990;59.826;30.108;2023-02-26T11:54:44;100411.09;;;-0.46;59.35
78675;BME280;67990;59.826;30.108;2023-02-26T11:57:16;100401.63;;;-0.45;61.09
78675;BME280;67990;59.826;30.108;2023-02-26T11:59:47;100403.75;;;-0.36;60.68
78675;BME280;67990;59.826;30.108;2023-02-26T12:02:18;100403.31;;;-0.27;60.91
78675;BME280;67990;59.826;30.108;2023-02-26T12:04:48;100404.38;;;-0.14;60.45
78675;BME280;67990;59.826;30.108;2023-02-26T12:07:19;100419.72;;;-0.11;59.90
78675;BME280;67990;59.826;30.108;2023-02-26T12:09:48;100403.84;;;-0.21;59.63
78675;BME280;67990;59.826;30.108;2023-02-26T12:12:38;100417.72;;;-0.23;60.61
78675;BME280;67990;59.826;30.108;2023-02-26T12:15:22;100419.31;;;-0.21;60.44
78675;BME280;67990;59.826;30.108;2023-02-26T12:18:03;100428.91;;;-0.23;60.41
78675;BME280;67990;59.826;30.108;2023-02-26T12:20:36;100436.25;;;-0.32;60.60
78675;BME280;67990;59.826;30.108;2023-02-26T12:23:20;100435.41;;;-0.16;60.58
78675;BME280;67990;59.826;30.108;2023-02-26T12:26:05;100431.63;;;-0.26;60.48
78675;BME280;67990;59.826;30.108;2023-02-26T12:31:58;100435.44;;;-0.51;61.59
78675;BME280;67990;59.826;30.108;2023-02-26T12:34:49;100458.41;;;-0.28;60.94
78675;BME280;67990;59.826;30.108;2023-02-26T12:37:31;100446.91;;;-0.40;61.07
78675;BME280;67990;59.826;30.108;2023-02-26T12:40:10;100463.81;;;-0.51;61.49
78675;BME280;67990;59.826;30.108;2023-02-26T12:42:49;100458.75;;;-0.36;60.76
78675;BME280;67990;59.826;30.108;2023-02-26T12:45:33;100464.91;;;-0.38;60.81
78675;BME280;67990;59.826;30.108;2023-02-26T12:48:16;100470.63;;;-0.50;61.33
78675;BME280;67990;59.826;30.108;2023-02-26T12:50:57;100471.13;;;-0.42;61.07
78675;BME280;67990;59.826;30.108;2023-02-26T12:53:55;100469.81;;;-0.51;61.02
78675;BME280;67990;59.826;30.108;2023-02-26T12:59:34;100485.84;;;-0.44;61.26
78675;BME280;67990;59.826;30.108;2023-02-26T13:02:26;100473.31;;;-0.70;61.26
78675;BME280;67990;59.826;30.108;2023-02-26T13:05:31;100503.13;;;-0.46;61.33
78675;BME280;67990;59.826;30.108;2023-02-26T13:08:11;100507.66;;;-0.51;60.23